sensor_id;sensor_type;location;lat;lon;timestamp;pressure;altitude;pressure_sealevel;temperature;humidity
74372;BME280;62885;51.374;6.170;2024-01-30T00:00:23;63382.78;;;7.87;100.00
74372;BME280;62885;51.374;6.170;2024-01-30T00:02:49;63359.19;;;7.92;100.00
74372;BME280;62885;51.374;6.170;2024-01-30T00:05:14;63384.97;;;7.89;100.00
74372;BME280;62885;51.374;6.170;2024-01-30T00:07:39;63383.34;;;7.87;100.00
74372;BME280;62885;51.374;6.170;2024-01-30T00:10:05;63392.03;;;7.95;100.00
74372;BME280;62885;51.374;6.170;2024-01-30T00:12:31;63357.56;;;7.90;100.00
74372;BME280;62885;51.374;6.170;2024-01-30T00:14:57;63394.13;;;7.95;100.00
74372;BME280;62885;51.374;6.170;2024-01-30T00:17:23;63385.59;;;7.92;100.00
74372;BME280;62885;51.374;6.170;2024-01-30T00:19:50;63385.06;;;7.91;100.00
74372;BME280;62885;51.374;6.170;2024-01-30T00:22:15;63391.94;;;7.93;100.00
74372;BME280;62885;51.374;6.170;2024-01-30T00:24:41;63382.78;;;7.87;100.00
74372;BME280;62885;51.374;6.170;2024-01-30T00:27:06;63383.88;;;7.88;100.00
74372;BME280;62885;51.374;6.170;2024-01-30T00:29:31;63352.13;;;7.85;100.00
74372;BME280;62885;51.374;6.170;2024-01-30T00:31:59;63387.59;;;7.89;100.00
74372;BME280;62885;51.374;6.170;2024-01-30T00:34:24;63379.63;;;7.86;100.00
74372;BME280;62885;51.374;6.170;2024-01-30T00:36:49;63376.28;;;7.80;100.00
74372;BME280;62885;51.374;6.170;2024-01-30T00:39:15;63382.78;;;7.87;100.00
74372;BME280;62885;51.374;6.170;2024-01-30T00:41:41;63378.53;;;7.85;100.00
74372;BME280;62885;51.374;6.170;2024-01-30T00:44:06;63382.19;;;7.83;100.00
74372;BME280;62885;51.374;6.170;2024-01-30T00:46:32;63333.03;;;7.82;100.00
74372;BME280;62885;51.374;6.170;2024-01-30T00:48:57;63378.47;;;7.82;100.00
74372;BME280;62885;51.374;6.170;2024-01-30T00:51:22;63375.22;;;7.79;100.00
74372;BME280;62885;51.374;6.170;2024-01-30T00:53:48;63364.97;;;7.72;100.00
74372;BME280;62885;51.374;6.170;2024-01-30T00:56:13;63371.94;;;7.76;100.00
74372;BME280;62885;51.374;6.170;2024-01-30T00:58:39;63368.16;;;7.73;100.00
74372;BME280;62885;51.374;6.170;2024-01-30T01:01:04;63366.53;;;7.71;100.00
74372;BME280;62885;51.374;6.170;2024-01-30T01:03:29;63331.50;;;7.66;100.00
74372;BME280;62885;51.374;6.170;2024-01-30T01:05:55;63360.56;;;7.66;100.00
74372;BME280;62885;51.374;6.170;2024-01-30T01:08:22;63358.91;;;7.64;100.00
74372;BME280;62885;51.374;6.170;2024-01-30T01:10:48;63356.22;;;7.62;100.00
74372;BME280;62885;51.374;6.170;2024-01-30T01:13:13;63349.16;;;7.55;100.00
74372;BME280;62885;51.374;6.170;2024-01-30T01:15:39;63352.41;;;7.58;100.00
74372;BME280;62885;51.374;6.170;2024-01-30T01:18:04;63358.31;;;7.61;100.00
74372;BME280;62885;51.374;6.170;2024-01-30T01:20:30;63322.28;;;7.57;100.00
74372;BME280;62885;51.374;6.170;2024-01-30T01:22:55;63350.31;;;7.59;100.00
74372;BME280;62885;51.374;6.170;2024-01-30T01:25:20;63357.78;;;7.61;100.00
74372;BME280;62885;51.374;6.170;2024-01-30T01:27:46;63350.78;;;7.57;100.00
74372;BME280;62885;51.374;6.170;2024-01-30T01:30:16;63349.22;;;7.58;100.00
74372;BME280;62885;51.374;6.170;2024-01-30T01:32:47;63354.59;;;7.60;100.00
74372;BME280;62885;51.374;6.170;2024-01-30T01:35:20;63325.09;;;7.62;100.00
74372;BME280;62885;51.374;6.170;2024-01-30T01:37:45;63354.13;;;7.62;100.00
74372;BME280;62885;51.374;6.170;2024-01-30T01:40:11;63357.31;;;7.63;100.00
74372;BME280;62885;51.374;6.170;2024-01-30T01:42:36;63357.22;;;7.60;100.00
74372;BME280;62885;51.374;6.170;2024-01-30T01:45:01;63360.47;;;7.63;100.00
74372;BME280;62885;51.374;6.170;2024-01-30T01:47:27;63356.81;;;7.65;100.00
74372;BME280;62885;51.374;6.170;2024-01-30T01:49:52;63356.75;;;7.62;100.00
74372;BME280;62885;51.374;6.170;2024-01-30T01:52:18;63358.38;;;7.64;100.00
74372;BME280;62885;51.374;6.170;2024-01-30T01:54:43;63364.28;;;7.67;100.00
74372;BME280;62885;51.374;6.170;2024-01-30T01:57:09;63358.91;;;7.64;100.00
74372;BME280;62885;51.374;6.170;2024-01-30T01:59:34;63332.59;;;7.67;100.00
74372;BME280;62885;51.374;6.170;2024-01-30T02:02:02;63335.31;;;7.69;100.00
74372;BME280;62885;51.374;6.170;2024-01-30T02:04:27;63363.28;;;7.68;100.00
74372;BME280;62885;51.374;6.170;2024-01-30T02:06:52;63360.63;;;7.68;100.00
74372;BME280;62885;51.374;6.170;2024-01-30T02:09:18;63361.16;;;7.69;100.00
74372;BME280;62885;51.374;6.170;2024-01-30T02:11:43;63361.69;;;7.69;100.00
74372;BME280;62885;51.374;6.170;2024-01-30T02:14:09;63365.38;;;7.68;100.00
74372;BME280;62885;51.374;6.170;2024-01-30T02:16:34;63368.16;;;7.73;100.00
74372;BME280;62885;51.374;6.170;2024-01-30T02:18:59;63369.16;;;7.71;100.00
74372;BME280;62885;51.374;6.170;2024-01-30T02:21:25;63363.88;;;7.71;100.00
74372;BME280;62885;51.374;6.170;2024-01-30T02:23:50;63370.31;;;7.75;100.00
74372;BME280;62885;51.374;6.170;2024-01-30T02:26:16;63370.31;;;7.75;100.00
74372;BME280;62885;51.374;6.170;2024-01-30T02:28:41;63368.75;;;7.76;100.00
74372;BME280;62885;51.374;6.170;2024-01-30T02:31:06;63374.03;;;7.76;100.00
74372;BME280;62885;51.374;6.170;2024-01-30T02:33:32;63371.94;;;7.76;100.00
74372;BME280;62885;51.374;6.170;2024-01-30T02:35:57;63341.81;;;7.75;100.00
74372;BME280;62885;51.374;6.170;2024-01-30T02:38:23;63376.13;;;7.75;100.00
74372;BME280;62885;51.374;6.170;2024-01-30T02:40:49;63369.31;;;7.76;100.00
74372;BME280;62885;51.374;6.170;2024-01-30T02:43:15;63379.47;;;7.81;100.00
74372;BME280;62885;51.374;6.170;2024-01-30T02:45:41;63367.16;;;7.74;100.00
74372;BME280;62885;51.374;6.170;2024-01-30T02:48:06;63374.13;;;7.78;100.00
74372;BME280;62885;51.374;6.170;2024-01-30T02:50:32;63374.72;;;7.81;100.00
74372;BME280;62885;51.374;6.170;2024-01-30T02:52:57;63374.66;;;7.79;100.00
74372;BME280;62885;51.374;6.170;2024-01-30T02:55:22;63377.84;;;7.79;100.00
74372;BME280;62885;51.374;6.170;2024-01-30T02:57:48;63377.44;;;7.84;100.00
74372;BME280;62885;51.374;6.170;2024-01-30T03:00:13;63384.97;;;7.89;100.00
74372;BME280;62885;51.374;6.170;2024-01-30T03:02:39;63386.66;;;7.93;100.00
74372;BME280;62885;51.374;6.170;2024-01-30T03:05:05;63390.94;;;7.94;100.00
74372;BME280;62885;51.374;6.170;2024-01-30T03:07:31;63384.50;;;7.91;100.00
74372;BME280;62885;51.374;6.170;2024-01-30T03:09:56;63378.53;;;7.85;100.00
74372;BME280;62885;51.374;6.170;2024-01-30T03:12:22;63374.19;;;7.81;100.00
74372;BME280;62885;51.374;6.170;2024-01-30T03:14:48;63374.13;;;7.78;100.00
74372;BME280;62885;51.374;6.170;2024-01-30T03:17:14;63369.31;;;7.76;100.00
74372;BME280;62885;51.374;6.170;2024-01-30T03:19:39;63373.56;;;7.78;100.00
74372;BME280;62885;51.374;6.170;2024-01-30T03:22:06;63375.66;;;7.77;100.00
74372;BME280;62885;51.374;6.170;2024-01-30T03:24:31;63371.41;;;7.76;100.00
74372;BME280;62885;51.374;6.170;2024-01-30T03:26:56;63342.91;;;7.76;100.00
74372;BME280;62885;51.374;6.170;2024-01-30T03:29:22;63373.63;;;7.80;100.00
74372;BME280;62885;51.374;6.170;2024-01-30T03:31:47;63382.78;;;7.87;100.00
74372;BME280;62885;51.374;6.170;2024-01-30T03:34:12;63376.91;;;7.83;100.00
74372;BME280;62885;51.374;6.170;2024-01-30T03:36:38;63381.72;;;7.86;100.00
74372;BME280;62885;51.374;6.170;2024-01-30T03:39:03;63369.31;;;7.76;100.00
74372;BME280;62885;51.374;6.170;2024-01-30T03:41:29;63373.03;;;7.77;100.00
74372;BME280;62885;51.374;6.170;2024-01-30T03:43:56;63369.78;;;7.74;100.00
74372;BME280;62885;51.374;6.170;2024-01-30T03:46:22;63368.16;;;7.73;100.00
74372;BME280;62885;51.374;6.170;2024-01-30T03:48:47;63362.25;;;7.70;100.00
74372;BME280;62885;51.374;6.170;2024-01-30T03:51:12;63362.25;;;7.70;100.00
74372;BME280;62885;51.374;6.170;2024-01-30T03:53:40;63362.72;;;7.68;100.00
74372;BME280;62885;51.374;6.170;2024-01-30T03:56:06;63362.19;;;7.67;100.00
74372;BME280;62885;51.374;6.170;2024-01-30T03:58:32;63358.47;;;7.66;100.00
74372;BME280;62885;51.374;6.170;2024-01-30T04:00:57;63361.69;;;7.69;100.00
74372;BME280;62885;51.374;6.170;2024-01-30T04:03:22;63366.53;;;7.71;100.00
74372;BME280;62885;51.374;6.170;2024-01-30T04:05:48;63364.81;;;7.67;100.00
74372;BME280;62885;51.374;6.170;2024-01-30T04:08:13;63365.44;;;7.70;100.00
74372;BME280;62885;51.374;6.170;2024-01-30T04:10:38;63361.16;;;7.69;100.00
74372;BME280;62885;51.374;6.170;2024-01-30T04:13:04;63361.63;;;7.67;100.00
74372;BME280;62885;51.374;6.170;2024-01-30T04:15:29;63363.19;;;7.66;100.00
74372;BME280;62885;51.374;6.170;2024-01-30T04:17:57;63367.59;;;7.72;100.00
74372;BME280;62885;51.374;6.170;2024-01-30T04:20:24;63360.63;;;7.68;100.00
74372;BME280;62885;51.374;6.170;2024-01-30T04:22:49;63357.91;;;7.66;100.00
74372;BME280;62885;51.374;6.170;2024-01-30T04:25:14;63357.91;;;7.66;100.00
74372;BME280;62885;51.374;6.170;2024-01-30T04:27:40;63363.78;;;7.69;100.00
74372;BME280;62885;51.374;6.170;2024-01-30T04:30:07;63334.75;;;7.69;100.00
74372;BME280;62885;51.374;6.170;2024-01-30T04:32:32;63331.06;;;7.68;100.00
74372;BME280;62885;51.374;6.170;2024-01-30T04:34:58;63360.63;;;7.68;100.00
74372;BME280;62885;51.374;6.170;2024-01-30T04:37:23;63363.34;;;7.71;100.00
74372;BME280;62885;51.374;6.170;2024-01-30T04:39:49;63370.78;;;7.73;100.00
74372;BME280;62885;51.374;6.170;2024-01-30T04:42:14;63364.34;;;7.69;100.00
74372;BME280;62885;51.374;6.170;2024-01-30T04:44:39;63367.53;;;7.70;100.00
74372;BME280;62885;51.374;6.170;2024-01-30T04:47:05;63364.34;;;7.69;100.00
74372;BME280;62885;51.374;6.170;2024-01-30T04:49:33;63362.19;;;7.67;100.00
74372;BME280;62885;51.374;6.170;2024-01-30T04:51:58;63351.41;;;7.60;100.00
74372;BME280;62885;51.374;6.170;2024-01-30T04:54:24;63349.22;;;7.58;100.00
74372;BME280;62885;51.374;6.170;2024-01-30T04:56:49;63344.28;;;7.51;100.00
74372;BME280;62885;51.374;6.170;2024-01-30T04:59:15;63347.06;;;7.56;100.00
74372;BME280;62885;51.374;6.170;2024-01-30T05:01:40;63338.38;;;7.48;100.00
74372;BME280;62885;51.374;6.170;2024-01-30T05:04:08;63342.09;;;7.49;100.00
74372;BME280;62885;51.374;6.170;2024-01-30T05:06:34;63310.91;;;7.47;100.00
74372;BME280;62885;51.374;6.170;2024-01-30T05:08:59;63334.03;;;7.43;100.00
74372;BME280;62885;51.374;6.170;2024-01-30T05:11:24;63331.88;;;7.41;100.00
74372;BME280;62885;51.374;6.170;2024-01-30T05:13:50;63328.63;;;7.38;100.00
74372;BME280;62885;51.374;6.170;2024-01-30T05:16:15;63333.97;;;7.41;100.00
74372;BME280;62885;51.374;6.170;2024-01-30T05:18:40;63338.31;;;7.45;100.00
74372;BME280;62885;51.374;6.170;2024-01-30T05:21:06;63334.59;;;7.44;100.00
74372;BME280;62885;51.374;6.170;2024-01-30T05:23:31;63338.31;;;7.45;100.00
74372;BME280;62885;51.374;6.170;2024-01-30T05:25:57;63338.78;;;7.43;100.00
74372;BME280;62885;51.374;6.170;2024-01-30T05:28:24;63330.78;;;7.40;100.00
74372;BME280;62885;51.374;6.170;2024-01-30T05:30:50;63339.38;;;7.46;100.00
74372;BME280;62885;51.374;6.170;2024-01-30T05:33:15;63312.53;;;7.48;100.00
74372;BME280;62885;51.374;6.170;2024-01-30T05:35:40;63343.19;;;7.50;100.00
74372;BME280;62885;51.374;6.170;2024-01-30T05:38:06;63343.81;;;7.53;100.00
74372;BME280;62885;51.374;6.170;2024-01-30T05:40:31;63343.81;;;7.53;100.00
74372;BME280;62885;51.374;6.170;2024-01-30T05:42:57;63349.63;;;7.53;100.00
74372;BME280;62885;51.374;6.170;2024-01-30T05:45:27;63345.97;;;7.55;100.00
74372;BME280;62885;51.374;6.170;2024-01-30T05:47:53;63349.22;;;7.58;100.00
74372;BME280;62885;51.374;6.170;2024-01-30T05:50:21;63355.59;;;7.59;100.00
74372;BME280;62885;51.374;6.170;2024-01-30T05:52:48;63355.03;;;7.58;100.00
74372;BME280;62885;51.374;6.170;2024-01-30T05:55:14;63358.31;;;7.61;100.00
74372;BME280;62885;51.374;6.170;2024-01-30T05:57:39;63357.22;;;7.60;100.00
74372;BME280;62885;51.374;6.170;2024-01-30T06:00:05;63350.84;;;7.59;100.00
74372;BME280;62885;51.374;6.170;2024-01-30T06:02:31;63356.22;;;7.62;100.00
74372;BME280;62885;51.374;6.170;2024-01-30T06:04:56;63358.91;;;7.64;100.00
74372;BME280;62885;51.374;6.170;2024-01-30T06:07:22;63357.38;;;7.65;100.00
74372;BME280;62885;51.374;6.170;2024-01-30T06:09:47;63357.38;;;7.65;100.00
74372;BME280;62885;51.374;6.170;2024-01-30T06:12:13;63364.81;;;7.67;100.00
74372;BME280;62885;51.374;6.170;2024-01-30T06:14:38;63331.59;;;7.68;100.00
74372;BME280;62885;51.374;6.170;2024-01-30T06:17:04;63366.97;;;7.69;100.00
74372;BME280;62885;51.374;6.170;2024-01-30T06:19:30;63361.16;;;7.69;100.00
74372;BME280;62885;51.374;6.170;2024-01-30T06:21:55;63369.16;;;7.71;100.00
74372;BME280;62885;51.374;6.170;2024-01-30T06:24:23;63368.63;;;7.71;100.00
74372;BME280;62885;51.374;6.170;2024-01-30T06:26:51;63369.78;;;7.74;100.00
74372;BME280;62885;51.374;6.170;2024-01-30T06:29:16;63366.06;;;7.73;100.00
74372;BME280;62885;51.374;6.170;2024-01-30T06:31:42;63374.03;;;7.76;100.00
74372;BME280;62885;51.374;6.170;2024-01-30T06:34:08;63368.75;;;7.76;100.00
74372;BME280;62885;51.374;6.170;2024-01-30T06:36:34;63368.16;;;7.73;100.00
74372;BME280;62885;51.374;6.170;2024-01-30T06:38:59;63373.50;;;7.75;100.00
74372;BME280;62885;51.374;6.170;2024-01-30T06:41:25;63368.22;;;7.75;100.00
74372;BME280;62885;51.374;6.170;2024-01-30T06:43:50;63375.22;;;7.79;100.00
74372;BME280;62885;51.374;6.170;2024-01-30T06:46:18;63374.13;;;7.78;100.00
74372;BME280;62885;51.374;6.170;2024-01-30T06:48:43;63374.72;;;7.81;100.00
74372;BME280;62885;51.374;6.170;2024-01-30T06:51:10;63331.38;;;7.80;100.00
74372;BME280;62885;51.374;6.170;2024-01-30T06:53:36;63376.81;;;7.81;100.00
74372;BME280;62885;51.374;6.170;2024-01-30T06:56:01;63375.75;;;7.80;100.00
74372;BME280;62885;51.374;6.170;2024-01-30T06:58:27;63386.53;;;7.88;100.00
74372;BME280;62885;51.374;6.170;2024-01-30T07:00:52;63381.19;;;7.85;100.00
74372;BME280;62885;51.374;6.170;2024-01-30T07:03:18;63387.16;;;7.91;100.00
74372;BME280;62885;51.374;6.170;2024-01-30T07:05:43;63388.75;;;7.92;100.00
74372;BME280;62885;51.374;6.170;2024-01-30T07:08:08;63389.84;;;7.93;100.00
74372;BME280;62885;51.374;6.170;2024-01-30T07:10:34;63390.47;;;7.96;100.00
74372;BME280;62885;51.374;6.170;2024-01-30T07:13:00;63394.25;;;8.00;100.00
74372;BME280;62885;51.374;6.170;2024-01-30T07:15:26;63393.72;;;7.99;100.00
74372;BME280;62885;51.374;6.170;2024-01-30T07:17:51;63396.91;;;8.00;100.00
74372;BME280;62885;51.374;6.170;2024-01-30T07:20:16;63395.81;;;7.99;100.00
74372;BME280;62885;51.374;6.170;2024-01-30T07:22:45;63401.72;;;8.02;100.00
74372;BME280;62885;51.374;6.170;2024-01-30T07:25:10;63400.72;;;8.03;100.00
74372;BME280;62885;51.374;6.170;2024-01-30T07:27:35;63400.78;;;8.06;100.00
74372;BME280;62885;51.374;6.170;2024-01-30T07:30:02;63405.59;;;8.08;100.00
74372;BME280;62885;51.374;6.170;2024-01-30T07:32:27;63401.88;;;8.07;100.00
74372;BME280;62885;51.374;6.170;2024-01-30T07:34:52;63411.09;;;8.15;100.00
74372;BME280;62885;51.374;6.170;2024-01-30T07:37:18;63385.75;;;8.16;100.00
74372;BME280;62885;51.374;6.170;2024-01-30T07:39:44;63414.28;;;8.16;100.00
74372;BME280;62885;51.374;6.170;2024-01-30T07:42:10;63416.91;;;8.16;100.00
74372;BME280;62885;51.374;6.170;2024-01-30T07:44:35;63414.91;;;8.19;100.00
74372;BME280;62885;51.374;6.170;2024-01-30T07:47:01;63413.81;;;8.18;100.00
74372;BME280;62885;51.374;6.170;2024-01-30T07:49:26;63421.41;;;8.25;100.00
74372;BME280;62885;51.374;6.170;2024-01-30T07:51:52;63423.56;;;8.27;100.00
74372;BME280;62885;51.374;6.170;2024-01-30T07:54:17;63432.22;;;8.33;100.00
74372;BME280;62885;51.374;6.170;2024-01-30T07:56:43;63429.03;;;8.32;100.00
74372;BME280;62885;51.374;6.170;2024-01-30T08:01:40;63408.56;;;8.38;100.00
74372;BME280;62885;51.374;6.170;2024-01-30T08:04:05;63432.75;;;8.33;100.00
74372;BME280;62885;51.374;6.170;2024-01-30T08:06:30;63433.91;;;8.37;100.00
74372;BME280;62885;51.374;6.170;2024-01-30T08:08:56;63442.44;;;8.40;100.00
74372;BME280;62885;51.374;6.170;2024-01-30T08:11:22;63439.34;;;8.42;100.00
74372;BME280;62885;51.374;6.170;2024-01-30T08:13:51;63435.00;;;8.38;100.00
74372;BME280;62885;51.374;6.170;2024-01-30T08:16:17;63433.91;;;8.37;100.00
74372;BME280;62885;51.374;6.170;2024-01-30T08:18:42;63439.25;;;8.39;100.00
74372;BME280;62885;51.374;6.170;2024-01-30T08:21:08;63439.25;;;8.39;100.00
74372;BME280;62885;51.374;6.170;2024-01-30T08:23:34;63444.22;;;8.46;100.00
74372;BME280;62885;51.374;6.170;2024-01-30T08:25:59;63450.59;;;8.47;100.00
74372;BME280;62885;51.374;6.170;2024-01-30T08:28:25;63450.19;;;8.52;100.00
74372;BME280;62885;51.374;6.170;2024-01-30T08:30:51;63451.22;;;8.50;100.00
74372;BME280;62885;51.374;6.170;2024-01-30T08:33:16;63451.69;;;8.48;100.00
74372;BME280;62885;51.374;6.170;2024-01-30T08:35:42;63446.94;;;8.49;100.00
74372;BME280;62885;51.374;6.170;2024-01-30T08:38:08;63451.84;;;8.53;100.00
74372;BME280;62885;51.374;6.170;2024-01-30T08:40:33;63456.66;;;8.55;100.00
74372;BME280;62885;51.374;6.170;2024-01-30T08:42:58;63455.56;;;8.54;100.00
74372;BME280;62885;51.374;6.170;2024-01-30T08:45:24;63458.22;;;8.54;100.00
74372;BME280;62885;51.374;6.170;2024-01-30T08:47:49;63456.66;;;8.55;100.00
74372;BME280;62885;51.374;6.170;2024-01-30T08:50:15;63468.97;;;8.62;100.00
74372;BME280;62885;51.374;6.170;2024-01-30T08:52:40;63472.84;;;8.68;100.00
74372;BME280;62885;51.374;6.170;2024-01-30T08:55:06;63471.84;;;8.70;100.00
74372;BME280;62885;51.374;6.170;2024-01-30T08:57:31;63477.81;;;8.75;100.00
74372;BME280;62885;51.374;6.170;2024-01-30T08:59:57;63479.59;;;8.82;100.00
74372;BME280;62885;51.374;6.170;2024-01-30T09:02:22;63465.59;;;8.91;100.00
74372;BME280;62885;51.374;6.170;2024-01-30T09:04:48;63506.69;;;9.04;100.00
74372;BME280;62885;51.374;6.170;2024-01-30T09:07:13;63520.13;;;9.12;100.00
74372;BME280;62885;51.374;6.170;2024-01-30T09:09:39;63527.88;;;9.24;100.00
74372;BME280;62885;51.374;6.170;2024-01-30T09:12:10;63541.41;;;9.34;100.00
74372;BME280;62885;51.374;6.170;2024-01-30T09:14:37;63549.63;;;9.44;100.00
74372;BME280;62885;51.374;6.170;2024-01-30T09:17:03;63563.75;;;9.58;100.00
74372;BME280;62885;51.374;6.170;2024-01-30T09:19:28;63549.75;;;9.69;100.00
74372;BME280;62885;51.374;6.170;2024-01-30T09:21:54;63590.31;;;9.80;100.00
74372;BME280;62885;51.374;6.170;2024-01-30T09:24:19;63600.66;;;9.89;100.00
74372;BME280;62885;51.374;6.170;2024-01-30T09:26:45;63605.59;;;9.97;100.00
74372;BME280;62885;51.374;6.170;2024-01-30T09:29:10;63620.28;;;10.10;100.00
74372;BME280;62885;51.374;6.170;2024-01-30T09:31:35;63627.38;;;10.17;100.00
74372;BME280;62885;51.374;6.170;2024-01-30T09:34:00;63637.13;;;10.23;100.00
74372;BME280;62885;51.374;6.170;2024-01-30T09:36:26;63639.28;;;10.25;100.00
74372;BME280;62885;51.374;6.170;2024-01-30T09:38:53;63604.56;;;10.35;100.00
74372;BME280;62885;51.374;6.170;2024-01-30T09:41:18;63655.59;;;10.41;100.00
74372;BME280;62885;51.374;6.170;2024-01-30T09:43:47;63658.41;;;10.46;100.00
74372;BME280;62885;51.374;6.170;2024-01-30T09:46:14;63656.69;;;10.42;100.00
74372;BME280;62885;51.374;6.170;2024-01-30T09:48:41;63661.66;;;10.49;100.00
74372;BME280;62885;51.374;6.170;2024-01-30T09:51:10;63656.84;;;10.47;100.00
74372;BME280;62885;51.374;6.170;2024-01-30T09:53:37;63665.94;;;10.50;100.00
74372;BME280;62885;51.374;6.170;2024-01-30T09:56:04;63673.63;;;10.60;100.00
74372;BME280;62885;51.374;6.170;2024-01-30T09:58:29;63687.16;;;10.70;100.00
74372;BME280;62885;51.374;6.170;2024-01-30T10:00:55;63693.16;;;10.76;100.00
74372;BME280;62885;51.374;6.170;2024-01-30T10:03:20;63697.03;;;10.82;100.00
74372;BME280;62885;51.374;6.170;2024-01-30T10:05:51;63707.31;;;10.89;100.00
74372;BME280;62885;51.374;6.170;2024-01-30T10:08:19;63700.28;;;10.85;100.00
74372;BME280;62885;51.374;6.170;2024-01-30T10:10:49;63707.91;;;10.92;100.00
74372;BME280;62885;51.374;6.170;2024-01-30T10:13:15;63685.72;;;10.96;100.00
74372;BME280;62885;51.374;6.170;2024-01-30T10:15:41;63716.00;;;10.97;100.00
74372;BME280;62885;51.374;6.170;2024-01-30T10:18:08;63716.63;;;11.00;100.00
74372;BME280;62885;51.374;6.170;2024-01-30T10:20:35;63674.16;;;11.00;100.00
74372;BME280;62885;51.374;6.170;2024-01-30T10:23:00;63711.72;;;10.95;100.00
74372;BME280;62885;51.374;6.170;2024-01-30T10:25:26;63674.72;;;11.00;100.00
74372;BME280;62885;51.374;6.170;2024-01-30T10:27:55;63720.44;;;11.03;100.00
74372;BME280;62885;51.374;6.170;2024-01-30T10:30:21;63694.97;;;11.04;100.00
74372;BME280;62885;51.374;6.170;2024-01-30T10:32:47;63691.16;;;11.01;100.00
74372;BME280;62885;51.374;6.170;2024-01-30T10:35:12;63724.22;;;11.07;100.00
74372;BME280;62885;51.374;6.170;2024-01-30T10:37:40;63723.09;;;11.03;100.00
74372;BME280;62885;51.374;6.170;2024-01-30T10:40:07;63723.16;;;11.06;100.00
74372;BME280;62885;51.374;6.170;2024-01-30T10:42:36;63724.19;;;11.04;100.00
74372;BME280;62885;51.374;6.170;2024-01-30T10:45:12;63716.63;;;11.00;100.00
74372;BME280;62885;51.374;6.170;2024-01-30T10:47:40;63726.84;;;11.04;100.00
74372;BME280;62885;51.374;6.170;2024-01-30T10:50:08;63729.63;;;11.09;100.00
74372;BME280;62885;51.374;6.170;2024-01-30T10:52:34;63730.22;;;11.12;100.00
74372;BME280;62885;51.374;6.170;2024-01-30T10:54:59;63690.47;;;11.15;100.00
74372;BME280;62885;51.374;6.170;2024-01-30T10:57:26;63731.81;;;11.11;100.00
74372;BME280;62885;51.374;6.170;2024-01-30T10:59:59;63735.69;;;11.18;100.00
74372;BME280;62885;51.374;6.170;2024-01-30T11:02:25;63736.22;;;11.18;100.00
74372;BME280;62885;51.374;6.170;2024-01-30T11:04:56;63705.72;;;11.29;100.00
74372;BME280;62885;51.374;6.170;2024-01-30T11:07:27;63750.31;;;11.29;100.00
74372;BME280;62885;51.374;6.170;2024-01-30T11:12:28;63751.47;;;11.32;100.00
74372;BME280;62885;51.374;6.170;2024-01-30T11:15:14;63754.66;;;11.33;100.00
74372;BME280;62885;51.374;6.170;2024-01-30T11:20:22;63758.00;;;11.38;100.00
74372;BME280;62885;51.374;6.170;2024-01-30T11:22:55;63758.53;;;11.39;100.00
74372;BME280;62885;51.374;6.170;2024-01-30T11:25:21;63756.91;;;11.37;100.00
74372;BME280;62885;51.374;6.170;2024-01-30T11:27:55;63759.69;;;11.42;100.00
74372;BME280;62885;51.374;6.170;2024-01-30T11:30:29;63758.00;;;11.38;100.00
74372;BME280;62885;51.374;6.170;2024-01-30T11:35:31;63753.69;;;11.37;100.00
74372;BME280;62885;51.374;6.170;2024-01-30T11:37:58;63760.72;;;11.41;100.00
74372;BME280;62885;51.374;6.170;2024-01-30T11:40:29;63720.41;;;11.43;100.00
74372;BME280;62885;51.374;6.170;2024-01-30T11:42:58;63762.91;;;11.43;100.00
74372;BME280;62885;51.374;6.170;2024-01-30T11:45:24;63770.94;;;11.45;100.00
74372;BME280;62885;51.374;6.170;2024-01-30T11:47:50;63726.94;;;11.49;100.00
74372;BME280;62885;51.374;6.170;2024-01-30T11:50:15;63765.63;;;11.45;100.00
74372;BME280;62885;51.374;6.170;2024-01-30T11:52:41;63767.78;;;11.47;100.00
74372;BME280;62885;51.374;6.170;2024-01-30T11:55:08;63723.13;;;11.45;100.00
74372;BME280;62885;51.374;6.170;2024-01-30T11:57:34;63768.88;;;11.48;100.00
74372;BME280;62885;51.374;6.170;2024-01-30T12:00:03;63772.16;;;11.51;100.00
74372;BME280;62885;51.374;6.170;2024-01-30T12:02:39;63775.97;;;11.55;100.00
74372;BME280;62885;51.374;6.170;2024-01-30T12:05:08;63753.22;;;11.59;100.00
74372;BME280;62885;51.374;6.170;2024-01-30T12:07:34;63786.84;;;11.65;100.00
74372;BME280;62885;51.374;6.170;2024-01-30T12:10:00;63792.25;;;11.68;100.00
74372;BME280;62885;51.374;6.170;2024-01-30T12:12:26;63793.88;;;11.69;100.00
74372;BME280;62885;51.374;6.170;2024-01-30T12:14:52;63790.69;;;11.69;100.00
74372;BME280;62885;51.374;6.170;2024-01-30T12:17:44;63806.44;;;11.81;100.00
74372;BME280;62885;51.374;6.170;2024-01-30T12:22:43;63820.13;;;11.96;100.00
74372;BME280;62885;51.374;6.170;2024-01-30T12:25:10;63824.47;;;12.00;100.00
74372;BME280;62885;51.374;6.170;2024-01-30T12:27:37;63827.19;;;12.03;100.00
74372;BME280;62885;51.374;6.170;2024-01-30T12:30:09;63831.56;;;12.07;100.00
74372;BME280;62885;51.374;6.170;2024-01-30T12:32:36;63787.38;;;12.05;100.00
74372;BME280;62885;51.374;6.170;2024-01-30T12:35:01;63831.56;;;12.07;100.00
74372;BME280;62885;51.374;6.170;2024-01-30T12:37:27;63787.91;;;12.06;100.00
74372;BME280;62885;51.374;6.170;2024-01-30T12:39:52;63833.81;;;12.11;100.00
74372;BME280;62885;51.374;6.170;2024-01-30T12:42:21;63797.72;;;12.15;100.00
74372;BME280;62885;51.374;6.170;2024-01-30T12:44:48;63839.72;;;12.14;100.00
74372;BME280;62885;51.374;6.170;2024-01-30T12:47:13;63831.09;;;12.09;100.00
74372;BME280;62885;51.374;6.170;2024-01-30T12:49:41;63806.06;;;12.08;100.00
74372;BME280;62885;51.374;6.170;2024-01-30T12:52:08;63829.94;;;12.05;100.00
74372;BME280;62885;51.374;6.170;2024-01-30T12:54:33;63834.84;;;12.10;100.00
74372;BME280;62885;51.374;6.170;2024-01-30T12:56:58;63834.84;;;12.10;100.00
74372;BME280;62885;51.374;6.170;2024-01-30T12:59:24;63826.72;;;12.05;100.00
74372;BME280;62885;51.374;6.170;2024-01-30T13:01:49;63787.38;;;12.05;100.00
74372;BME280;62885;51.374;6.170;2024-01-30T13:04:14;63824.53;;;12.03;100.00